createdAt,value
2022-11-13T00:00:08.526Z,128.60
2022-11-13T00:02:35.056Z,123.40
2022-11-13T00:05:01.702Z,120.80
2022-11-13T00:07:28.273Z,116.10
2022-11-13T00:09:55.286Z,123.40
2022-11-13T00:12:21.828Z,114.60
2022-11-13T00:14:48.288Z,128.10
2022-11-13T00:17:14.785Z,117.70
2022-11-13T00:19:41.266Z,110.80
2022-11-13T00:22:07.773Z,111.00
2022-11-13T00:24:34.411Z,102.80
2022-11-13T00:27:00.959Z,102.10
2022-11-13T00:29:27.498Z,108.00
2022-11-13T00:31:54.145Z,106.40
2022-11-13T00:34:45.926Z,103.70
2022-11-13T00:37:07.156Z,103.70
2022-11-13T00:39:33.709Z,97.00
2022-11-13T00:42:00.353Z,101.40
2022-11-13T00:44:26.889Z,91.60
2022-11-13T00:46:53.316Z,99.50
2022-11-13T00:49:20.064Z,103.10
2022-11-13T00:51:46.711Z,103.90
2022-11-13T00:54:13.155Z,107.90
2022-11-13T00:56:39.675Z,139.90
2022-11-13T00:59:06.168Z,134.50
2022-11-13T01:01:32.908Z,129.60
2022-11-13T01:03:59.683Z,129.90
2022-11-13T01:06:27.817Z,130.70
2022-11-13T01:08:55.962Z,135.10
2022-11-13T01:11:26.005Z,78.30
2022-11-13T01:13:52.979Z,73.80
2022-11-13T01:16:23.212Z,82.20
2022-11-13T01:18:49.896Z,109.90
2022-11-13T01:21:21.736Z,108.50
2022-11-13T01:23:48.707Z,81.90
2022-11-13T01:26:19.671Z,82.30
2022-11-13T01:28:47.519Z,92.30
2022-11-13T01:31:17.647Z,96.20
2022-11-13T01:33:45.617Z,107.60
2022-11-13T01:36:15.312Z,105.80
2022-11-13T01:38:41.958Z,93.90
2022-11-13T01:41:20.317Z,94.90
2022-11-13T01:43:49.075Z,85.00
2022-11-13T01:46:37.012Z,73.00
2022-11-13T01:49:09.407Z,61.40
2022-11-13T01:51:49.561Z,61.40
2022-11-13T01:54:19.093Z,58.50
2022-11-13T01:56:45.701Z,64.30
2022-11-13T01:59:18.543Z,62.30
2022-11-13T02:01:45.316Z,66.80
2022-11-13T02:04:12.325Z,59.60
2022-11-13T02:06:57.674Z,63.30
2022-11-13T02:09:28.834Z,61.90
2022-11-13T02:11:56.579Z,55.60
2022-11-13T02:14:26.616Z,54.40
2022-11-13T02:16:58.969Z,53.60
2022-11-13T02:19:30.755Z,52.10
2022-11-13T02:22:13.772Z,52.10
2022-11-13T02:24:45.051Z,52.90
2022-11-13T02:27:36.634Z,52.90
2022-11-13T02:30:22.037Z,50.70
2022-11-13T02:32:54.614Z,50.90
2022-11-13T02:35:27.694Z,47.70
2022-11-13T02:37:56.272Z,50.60
2022-11-13T02:40:24.240Z,46.50
2022-11-13T02:42:50.809Z,46.80
2022-11-13T02:45:17.725Z,49.00
2022-11-13T02:47:44.671Z,47.80
2022-11-13T02:50:12.292Z,45.50
2022-11-13T02:52:38.904Z,48.40
2022-11-13T02:55:06.494Z,44.30
2022-11-13T02:57:33.336Z,48.60
2022-11-13T02:59:59.818Z,45.30
2022-11-13T03:02:26.252Z,43.20
2022-11-13T03:07:40.121Z,41.70
2022-11-13T03:10:07.534Z,39.60
2022-11-13T03:12:34.437Z,43.00
2022-11-13T03:15:01.123Z,42.30
2022-11-13T03:17:27.827Z,42.20
2022-11-13T03:19:54.340Z,39.90
2022-11-13T03:22:20.882Z,39.50
2022-11-13T03:24:47.560Z,39.80
2022-11-13T03:27:14.038Z,40.20
2022-11-13T03:29:40.599Z,41.10
2022-11-13T03:32:07.075Z,42.70
2022-11-13T03:34:34.425Z,42.10
2022-11-13T03:37:01.083Z,42.60
2022-11-13T03:39:27.666Z,44.90
2022-11-13T03:41:54.211Z,43.80
2022-11-13T03:44:20.656Z,47.30
2022-11-13T03:46:47.394Z,43.40
2022-11-13T03:49:13.863Z,46.60
2022-11-13T03:51:40.548Z,43.70
2022-11-13T03:54:07.097Z,43.50
2022-11-13T03:56:33.603Z,43.20
2022-11-13T03:59:00.104Z,43.00
2022-11-13T04:01:26.942Z,43.40
2022-11-13T04:03:53.539Z,42.20
2022-11-13T04:06:20.004Z,44.30
2022-11-13T04:08:46.642Z,41.70
2022-11-13T04:11:13.328Z,43.10
2022-11-13T04:13:39.928Z,39.50
2022-11-13T04:16:06.875Z,41.70
2022-11-13T04:18:33.463Z,40.80
2022-11-13T04:21:01.928Z,40.70
2022-11-13T04:23:29.244Z,38.90
2022-11-13T04:25:56.411Z,41.60
2022-11-13T04:28:23.176Z,38.80
2022-11-13T04:30:50.009Z,38.60
2022-11-13T04:33:16.512Z,40.50
2022-11-13T04:35:43.081Z,43.60
2022-11-13T04:38:09.623Z,40.20
2022-11-13T04:40:36.261Z,40.80
2022-11-13T04:43:03.722Z,41.40
2022-11-13T04:45:30.570Z,39.60
2022-11-13T04:47:57.314Z,36.00
2022-11-13T04:50:24.163Z,36.40
2022-11-13T04:52:50.670Z,37.10
2022-11-13T04:55:17.527Z,34.40
2022-11-13T04:57:44.079Z,35.40
2022-11-13T05:00:11.642Z,40.00
2022-11-13T05:02:38.141Z,38.30
2022-11-13T05:05:05.642Z,41.00
2022-11-13T05:07:32.591Z,40.90
2022-11-13T05:09:59.042Z,38.60
2022-11-13T05:12:25.772Z,40.10
2022-11-13T05:14:52.309Z,37.70
2022-11-13T05:17:18.847Z,38.10
2022-11-13T05:19:45.383Z,43.10
2022-11-13T05:22:11.963Z,42.10
2022-11-13T05:24:38.469Z,44.50
2022-11-13T05:27:04.980Z,43.30
2022-11-13T05:29:31.545Z,48.10
2022-11-13T05:31:58.040Z,46.00
2022-11-13T05:34:24.530Z,41.40
2022-11-13T05:36:51.004Z,46.50
2022-11-13T05:39:17.595Z,51.10
2022-11-13T05:41:44.232Z,53.90
2022-11-13T05:44:10.777Z,47.80
2022-11-13T05:46:37.626Z,45.90
2022-11-13T05:49:04.365Z,45.70
2022-11-13T05:51:33.410Z,54.40
2022-11-13T05:54:00.520Z,51.50
2022-11-13T05:56:33.460Z,53.80
2022-11-13T05:59:01.078Z,49.90
2022-11-13T06:01:41.198Z,49.80
2022-11-13T06:04:08.282Z,45.10
2022-11-13T06:06:35.456Z,42.70
2022-11-13T06:09:05.199Z,43.80
2022-11-13T06:11:32.197Z,45.10
2022-11-13T06:13:59.759Z,41.20
2022-11-13T06:16:34.590Z,41.30
2022-11-13T06:19:03.931Z,43.90
2022-11-13T06:21:32.793Z,41.50
2022-11-13T06:24:00.660Z,37.90
2022-11-13T06:26:33.809Z,35.40
2022-11-13T06:29:01.931Z,37.50
2022-11-13T06:31:31.066Z,40.30
2022-11-13T06:33:58.593Z,40.00
2022-11-13T06:36:28.371Z,37.20
2022-11-13T06:38:55.418Z,42.70
2022-11-13T06:41:25.619Z,42.80
2022-11-13T06:43:52.550Z,38.40
2022-11-13T06:46:24.204Z,29.20
2022-11-13T06:48:51.554Z,33.20
2022-11-13T06:51:21.163Z,38.30
2022-11-13T06:53:48.316Z,34.20
2022-11-13T06:56:15.278Z,33.70
2022-11-13T06:58:42.371Z,30.20
2022-11-13T07:01:14.370Z,29.70
2022-11-13T07:03:41.638Z,31.10
2022-11-13T07:06:10.996Z,31.70
2022-11-13T07:08:37.486Z,33.50
2022-11-13T07:11:03.916Z,32.50
2022-11-13T07:13:30.450Z,34.30
2022-11-13T07:16:09.428Z,33.70
2022-11-13T07:18:40.424Z,31.10
2022-11-13T07:21:10.617Z,31.50
2022-11-13T07:23:38.336Z,37.80
2022-11-13T07:26:04.962Z,34.80
2022-11-13T07:28:31.745Z,28.50
2022-11-13T07:30:59.369Z,34.70
2022-11-13T07:33:26.207Z,33.10
2022-11-13T07:35:57.151Z,24.60
2022-11-13T07:38:24.321Z,23.80
2022-11-13T07:40:51.374Z,22.90
2022-11-13T07:43:17.975Z,23.70
2022-11-13T07:45:44.740Z,24.70
2022-11-13T07:48:11.275Z,24.80
2022-11-13T07:50:39.083Z,24.90
2022-11-13T07:53:08.657Z,25.20
2022-11-13T07:55:36.062Z,26.90
2022-11-13T07:58:04.207Z,27.80
2022-11-13T08:00:32.596Z,25.30
2022-11-13T08:03:05.010Z,29.80
2022-11-13T08:05:31.491Z,32.20
2022-11-13T08:07:58.024Z,31.60
2022-11-13T08:10:24.639Z,29.40
2022-11-13T08:13:02.163Z,27.40
2022-11-13T08:15:29.819Z,25.60
2022-11-13T08:17:57.689Z,25.10
2022-11-13T08:20:26.172Z,21.50
2022-11-13T08:22:56.503Z,23.30
2022-11-13T08:25:23.246Z,22.40
2022-11-13T08:27:53.059Z,25.00
2022-11-13T08:30:20.119Z,25.60
2022-11-13T08:32:48.188Z,26.80
2022-11-13T08:35:19.238Z,26.50
2022-11-13T08:37:46.551Z,25.30
2022-11-13T08:40:13.536Z,23.80
2022-11-13T08:42:40.058Z,24.40
2022-11-13T08:45:07.393Z,23.30
2022-11-13T08:47:33.892Z,24.20
2022-11-13T08:50:00.315Z,23.40
2022-11-13T08:52:26.839Z,23.50
2022-11-13T08:54:53.281Z,24.80
2022-11-13T08:57:19.916Z,23.10
2022-11-13T08:59:46.456Z,23.40
2022-11-13T09:02:15.154Z,22.60
2022-11-13T09:04:42.415Z,23.10
2022-11-13T09:07:09.517Z,23.90
2022-11-13T09:09:36.120Z,24.60
2022-11-13T09:12:02.932Z,26.10
2022-11-13T09:14:29.779Z,26.80
2022-11-13T09:16:56.216Z,26.50
2022-11-13T09:19:22.693Z,27.10
2022-11-13T09:21:50.741Z,27.50
2022-11-13T09:24:17.247Z,29.50
2022-11-13T09:26:43.712Z,31.10
2022-11-13T09:29:10.243Z,29.60
2022-11-13T09:31:37.496Z,27.20
2022-11-13T09:34:04.441Z,28.60
2022-11-13T09:36:30.896Z,30.60
2022-11-13T09:38:57.382Z,29.20
2022-11-13T09:41:31.837Z,28.90
2022-11-13T09:44:19.675Z,28.90
2022-11-13T09:46:54.130Z,29.50
2022-11-13T09:49:34.785Z,29.00
2022-11-13T09:52:12.571Z,22.70
2022-11-13T09:54:39.049Z,29.40
2022-11-13T09:57:30.938Z,28.90
2022-11-13T10:00:01.176Z,27.20
2022-11-13T10:02:36.610Z,29.70
2022-11-13T10:05:21.483Z,28.40
2022-11-13T10:07:57.952Z,26.70
2022-11-13T10:10:55.238Z,27.10
2022-11-13T10:13:44.176Z,26.60
2022-11-13T10:16:35.190Z,28.00
2022-11-13T10:19:18.518Z,28.10
2022-11-13T10:22:25.994Z,27.50
2022-11-13T10:24:46.493Z,28.90
2022-11-13T10:27:14.694Z,29.30
2022-11-13T10:29:48.795Z,30.30
2022-11-13T10:32:23.134Z,30.60
2022-11-13T10:35:01.397Z,30.70
2022-11-13T10:37:45.292Z,28.90
2022-11-13T10:40:11.829Z,30.30
2022-11-13T10:42:41.232Z,30.00
2022-11-13T10:45:19.547Z,27.60
2022-11-13T10:48:04.125Z,29.40
2022-11-13T10:50:32.695Z,27.40
2022-11-13T10:52:59.538Z,26.10
2022-11-13T10:55:35.087Z,26.90
2022-11-13T10:58:04.617Z,28.80
2022-11-13T11:00:34.315Z,25.10
2022-11-13T11:03:01.576Z,25.20
2022-11-13T11:05:29.154Z,22.20
2022-11-13T11:07:57.242Z,20.20
2022-11-13T11:10:23.844Z,19.70
2022-11-13T11:13:02.059Z,17.70
2022-11-13T11:15:38.837Z,19.00
2022-11-13T11:18:18.799Z,18.70
2022-11-13T11:20:51.339Z,17.90
2022-11-13T11:23:56.403Z,18.80
2022-11-13T11:26:34.466Z,18.50
2022-11-13T11:29:13.548Z,20.10
2022-11-13T11:31:50.636Z,18.70
2022-11-13T11:34:26.647Z,16.20
2022-11-13T11:37:03.179Z,17.20
2022-11-13T11:39:54.873Z,17.40
2022-11-13T11:42:33.660Z,16.80
2022-11-13T11:45:21.812Z,17.60
2022-11-13T11:47:48.548Z,18.70
2022-11-13T11:50:18.627Z,16.80
2022-11-13T11:53:16.196Z,17.00
2022-11-13T11:55:54.815Z,18.10
2022-11-13T11:58:32.771Z,17.70
2022-11-13T12:01:17.589Z,17.90
2022-11-13T12:04:04.371Z,17.20
2022-11-13T12:06:49.270Z,17.40
2022-11-13T12:09:29.784Z,15.40
2022-11-13T12:12:11.020Z,14.40
2022-11-13T12:17:41.069Z,12.80
2022-11-13T12:20:30.850Z,12.70
2022-11-13T12:23:35.070Z,12.20
2022-11-13T12:26:10.625Z,12.40
2022-11-13T12:28:45.456Z,13.90
2022-11-13T12:31:36.162Z,13.80
2022-11-13T12:34:22.773Z,14.80
2022-11-13T12:36:51.369Z,16.10
2022-11-13T12:39:58.451Z,15.90
2022-11-13T12:42:54.787Z,17.10
2022-11-13T12:45:38.021Z,16.80
2022-11-13T12:48:26.147Z,16.30
2022-11-13T12:51:05.318Z,18.00
2022-11-13T12:53:51.602Z,18.70
2022-11-13T12:56:24.184Z,19.20
2022-11-13T12:59:34.113Z,19.90
2022-11-13T13:02:06.721Z,21.50
2022-11-13T13:04:50.346Z,22.70
2022-11-13T13:07:28.978Z,23.30
2022-11-13T13:10:15.866Z,21.10
2022-11-13T13:12:57.385Z,22.80
2022-11-13T13:15:46.248Z,21.90
2022-11-13T13:18:12.784Z,22.50
2022-11-13T13:20:41.480Z,20.40
2022-11-13T13:23:13.499Z,20.70
2022-11-13T13:25:41.031Z,20.50
2022-11-13T13:28:07.476Z,20.40
2022-11-13T13:30:48.763Z,20.30
2022-11-13T13:36:32.191Z,20.50
2022-11-13T13:39:03.237Z,21.40
2022-11-13T13:42:06.745Z,20.80
2022-11-13T13:44:54.577Z,19.00
2022-11-13T13:47:26.917Z,18.50
2022-11-13T13:49:54.008Z,18.10
2022-11-13T13:52:28.301Z,17.10
2022-11-13T13:54:55.909Z,15.30
2022-11-13T13:57:23.727Z,17.10
2022-11-13T13:59:51.168Z,16.20
2022-11-13T14:02:22.540Z,17.00
2022-11-13T14:04:51.704Z,17.80
2022-11-13T14:07:28.423Z,17.70
2022-11-13T14:10:16.597Z,17.70
2022-11-13T14:12:45.391Z,18.10
2022-11-13T14:15:32.677Z,18.40
2022-11-13T14:18:06.653Z,18.00
2022-11-13T14:20:52.063Z,16.70
2022-11-13T14:23:25.925Z,18.00
2022-11-13T14:25:52.794Z,19.50
2022-11-13T14:28:23.194Z,19.20
2022-11-13T14:30:59.232Z,22.30
2022-11-13T14:33:32.758Z,23.80
2022-11-13T14:36:00.168Z,21.30
2022-11-13T14:38:31.565Z,23.80
2022-11-13T14:43:31.118Z,25.20
2022-11-13T14:46:01.938Z,24.30
2022-11-13T14:48:31.083Z,52.20
2022-11-13T14:51:02.996Z,35.40
2022-11-13T14:53:42.211Z,27.80
2022-11-13T14:56:11.547Z,26.30
2022-11-13T14:58:44.047Z,26.70
2022-11-13T15:01:17.725Z,29.20
2022-11-13T15:03:49.084Z,37.40
2022-11-13T15:06:24.219Z,28.60
2022-11-13T15:08:55.435Z,29.00
2022-11-13T15:11:24.303Z,28.20
2022-11-13T15:13:50.797Z,29.40
2022-11-13T15:16:24.911Z,46.70
2022-11-13T15:19:01.687Z,60.10
2022-11-13T15:21:28.943Z,44.70
2022-11-13T15:23:55.485Z,40.70
2022-11-13T15:26:22.325Z,39.80
2022-11-13T15:28:49.134Z,51.10
2022-11-13T15:31:20.732Z,37.50
2022-11-13T15:33:48.190Z,43.50
2022-11-13T15:36:15.034Z,39.50
2022-11-13T15:38:41.492Z,37.90
2022-11-13T15:41:14.476Z,39.70
2022-11-13T15:43:48.300Z,41.90
2022-11-13T15:46:16.541Z,46.90
2022-11-13T15:48:46.970Z,45.10
2022-11-13T15:51:24.228Z,56.20
2022-11-13T15:53:56.023Z,50.40
2022-11-13T15:56:24.879Z,49.20
2022-11-13T15:58:51.655Z,50.00
2022-11-13T16:01:19.485Z,57.90
2022-11-13T16:03:46.267Z,53.30
2022-11-13T16:06:19.149Z,54.60
2022-11-13T16:08:46.615Z,58.40
2022-11-13T16:11:15.420Z,59.10
2022-11-13T16:13:42.468Z,64.30
2022-11-13T16:16:37.012Z,59.60
2022-11-13T16:19:09.320Z,115.30
2022-11-13T16:21:35.860Z,128.80
2022-11-13T16:24:02.400Z,132.50
2022-11-13T16:26:28.935Z,130.50
2022-11-13T16:31:42.086Z,90.40
2022-11-13T16:34:08.557Z,76.10
2022-11-13T16:36:35.003Z,68.20
2022-11-13T16:39:01.904Z,67.50
2022-11-13T16:41:28.439Z,69.40
2022-11-13T16:43:54.984Z,266.60
2022-11-13T16:46:34.745Z,148.30
2022-11-13T16:49:01.270Z,129.30
2022-11-13T16:51:27.907Z,122.20
2022-11-13T16:53:54.446Z,121.10
2022-11-13T16:56:25.198Z,125.10
2022-11-13T16:58:51.653Z,113.30
2022-11-13T17:01:20.115Z,103.30
2022-11-13T17:03:46.642Z,117.60
2022-11-13T17:06:29.320Z,161.10
2022-11-13T17:08:58.668Z,117.40
2022-11-13T17:11:28.307Z,118.70
2022-11-13T17:14:00.341Z,110.50
2022-11-13T17:16:28.647Z,107.80
2022-11-13T17:18:55.689Z,106.10
2022-11-13T17:21:24.515Z,92.90
2022-11-13T17:23:58.233Z,84.30
2022-11-13T17:26:25.933Z,78.60
2022-11-13T17:28:53.191Z,72.80
2022-11-13T17:31:21.166Z,67.50
2022-11-13T17:33:48.218Z,73.90
2022-11-13T17:36:14.855Z,68.50
2022-11-13T17:38:41.492Z,74.80
2022-11-13T17:41:10.945Z,75.80
2022-11-13T17:43:39.052Z,75.30
2022-11-13T17:46:07.559Z,105.10
2022-11-13T17:48:34.711Z,106.60
2022-11-13T17:51:04.742Z,107.90
2022-11-13T17:53:31.955Z,97.90
2022-11-13T17:56:01.493Z,95.00
2022-11-13T17:58:29.155Z,98.10
2022-11-13T18:01:04.326Z,93.20
2022-11-13T18:03:31.725Z,91.50
2022-11-13T18:05:58.493Z,88.30
2022-11-13T18:08:25.034Z,96.70
2022-11-13T18:10:51.618Z,112.30
2022-11-13T18:13:18.104Z,96.40
2022-11-13T18:15:44.644Z,101.70
2022-11-13T18:18:11.491Z,100.20
2022-11-13T18:20:40.589Z,94.10
2022-11-13T18:23:07.477Z,89.80
2022-11-13T18:25:39.650Z,86.80
2022-11-13T18:28:06.552Z,90.60
2022-11-13T18:30:33.089Z,94.00
2022-11-13T18:32:59.634Z,96.70
2022-11-13T18:35:26.171Z,88.10
2022-11-13T18:37:52.634Z,84.20
2022-11-13T18:40:19.449Z,79.70
2022-11-13T18:42:45.904Z,78.60
2022-11-13T18:45:12.526Z,71.50
2022-11-13T18:47:39.061Z,76.80
2022-11-13T18:50:05.802Z,73.60
2022-11-13T18:52:32.266Z,71.80
2022-11-13T18:54:58.981Z,76.40
2022-11-13T18:57:25.511Z,70.20
2022-11-13T18:59:52.060Z,74.10
2022-11-13T19:02:18.647Z,69.80
2022-11-13T19:04:45.231Z,69.20
2022-11-13T19:07:11.883Z,70.50
2022-11-13T19:09:38.616Z,69.10
2022-11-13T19:12:05.844Z,71.20
2022-11-13T19:14:34.024Z,69.10
2022-11-13T19:17:00.484Z,67.80
2022-11-13T19:19:27.010Z,66.10
2022-11-13T19:21:55.212Z,69.20
2022-11-13T19:24:22.132Z,66.00
2022-11-13T19:26:48.785Z,65.90
2022-11-13T19:29:15.310Z,79.60
2022-11-13T19:31:41.850Z,76.70
2022-11-13T19:34:09.853Z,84.80
2022-11-13T19:36:36.572Z,75.50
2022-11-13T19:39:03.917Z,84.00
2022-11-13T19:41:30.864Z,78.40
2022-11-13T19:43:58.836Z,69.90
2022-11-13T19:46:25.373Z,73.00
2022-11-13T19:48:52.863Z,77.60
2022-11-13T19:51:22.737Z,71.30
2022-11-13T19:53:59.739Z,84.70
2022-11-13T19:56:27.708Z,75.00
2022-11-13T19:58:54.556Z,63.30
2022-11-13T20:01:24.296Z,60.30
2022-11-13T20:03:59.459Z,69.20
2022-11-13T20:06:27.929Z,63.60
2022-11-13T20:08:54.423Z,66.10
2022-11-13T20:11:21.120Z,69.00
2022-11-13T20:13:47.738Z,77.60
2022-11-13T20:16:15.921Z,74.60
2022-11-13T20:18:43.854Z,69.50
2022-11-13T20:21:10.631Z,57.70
2022-11-13T20:23:37.570Z,49.90
2022-11-13T20:26:07.060Z,53.70
2022-11-13T20:28:34.222Z,52.70
2022-11-13T20:31:15.757Z,55.20
2022-11-13T20:36:09.019Z,51.20
2022-11-13T20:38:35.615Z,54.20
2022-11-13T20:41:05.947Z,51.50
2022-11-13T20:43:33.097Z,55.00
2022-11-13T20:46:13.569Z,55.80
2022-11-13T20:48:40.413Z,58.40
2022-11-13T20:51:19.057Z,56.60
2022-11-13T20:53:45.779Z,62.60
2022-11-13T20:56:12.936Z,60.10
2022-11-13T20:58:39.757Z,78.00
2022-11-13T21:01:08.174Z,74.10
2022-11-13T21:03:40.213Z,74.20
2022-11-13T21:06:10.091Z,69.40
2022-11-13T21:08:37.193Z,68.80
2022-11-13T21:11:48.685Z,59.00
2022-11-13T21:14:59.971Z,57.30
2022-11-13T21:18:10.443Z,46.30
2022-11-13T21:20:38.725Z,45.80
2022-11-13T21:23:05.175Z,50.20
2022-11-13T21:25:31.900Z,44.90
2022-11-13T21:27:58.334Z,48.50
2022-11-13T21:30:24.948Z,46.20
2022-11-13T21:32:51.653Z,69.00
2022-11-13T21:35:22.324Z,63.80
2022-11-13T21:37:49.528Z,59.90
2022-11-13T21:40:16.072Z,56.50
2022-11-13T21:42:43.098Z,61.30
2022-11-13T21:45:10.459Z,58.80
2022-11-13T21:47:37.368Z,60.30
2022-11-13T21:50:05.629Z,59.50
2022-11-13T21:52:32.441Z,60.00
2022-11-13T21:54:58.974Z,61.80
2022-11-13T21:57:25.510Z,59.60
2022-11-13T21:59:52.220Z,55.90
2022-11-13T22:02:18.697Z,56.10
2022-11-13T22:04:45.265Z,54.70
2022-11-13T22:07:11.759Z,50.80
2022-11-13T22:09:38.282Z,51.30
2022-11-13T22:12:04.843Z,49.10
2022-11-13T22:14:31.279Z,48.60
2022-11-13T22:16:57.924Z,48.30
2022-11-13T22:19:28.411Z,62.10
2022-11-13T22:21:56.837Z,45.70
2022-11-13T22:24:23.294Z,46.70
2022-11-13T22:26:49.809Z,45.30
2022-11-13T22:29:16.233Z,47.80
2022-11-13T22:31:42.787Z,50.30
2022-11-13T22:34:09.245Z,47.40
2022-11-13T22:36:37.199Z,52.20
2022-11-13T22:39:05.072Z,56.60
2022-11-13T22:41:34.122Z,47.10
2022-11-13T22:44:06.853Z,43.40
2022-11-13T22:46:35.654Z,41.60
2022-11-13T22:49:04.668Z,45.80
2022-11-13T22:51:36.969Z,43.00
2022-11-13T22:54:07.278Z,48.00
2022-11-13T22:56:34.919Z,47.90
2022-11-13T22:59:03.895Z,45.00
2022-11-13T23:01:32.711Z,46.80
2022-11-13T23:04:05.371Z,43.40
2022-11-13T23:06:34.301Z,43.40
2022-11-13T23:09:01.729Z,46.10
2022-11-13T23:11:35.038Z,44.70
2022-11-13T23:14:03.433Z,40.50
2022-11-13T23:16:30.863Z,46.20
2022-11-13T23:18:59.247Z,45.70
2022-11-13T23:21:27.547Z,42.70
2022-11-13T23:23:54.774Z,44.60
2022-11-13T23:26:22.239Z,44.70
2022-11-13T23:28:49.239Z,44.10
2022-11-13T23:31:16.135Z,44.50
2022-11-13T23:33:42.676Z,42.90
2022-11-13T23:36:11.640Z,42.30
2022-11-13T23:38:38.539Z,42.70
2022-11-13T23:41:05.257Z,46.50
2022-11-13T23:44:07.104Z,55.30
2022-11-13T23:46:18.200Z,51.00
2022-11-13T23:48:44.735Z,47.10
2022-11-13T23:51:11.378Z,57.40
2022-11-13T23:53:38.021Z,55.40
2022-11-13T23:56:05.671Z,61.30
2022-11-13T23:58:32.885Z,57.60
